sensor_id;sensor_type;location;lat;lon;timestamp;P1;durP1;ratioP1;P2;durP2;ratioP2
31262;SDS011;17892;52.080;9.006;2023-01-30T00:01:43;27.52;;;12.82;;
31262;SDS011;17892;52.080;9.006;2023-01-30T00:04:10;25.27;;;10.40;;
31262;SDS011;17892;52.080;9.006;2023-01-30T00:06:37;22.50;;;9.75;;
31262;SDS011;17892;52.080;9.006;2023-01-30T00:09:04;26.70;;;11.60;;
31262;SDS011;17892;52.080;9.006;2023-01-30T00:11:30;26.75;;;12.80;;
31262;SDS011;17892;52.080;9.006;2023-01-30T00:13:57;24.35;;;11.18;;
31262;SDS011;17892;52.080;9.006;2023-01-30T00:16:23;23.35;;;10.43;;
31262;SDS011;17892;52.080;9.006;2023-01-30T00:18:49;26.15;;;11.65;;
31262;SDS011;17892;52.080;9.006;2023-01-30T00:21:15;26.75;;;10.93;;
31262;SDS011;17892;52.080;9.006;2023-01-30T00:23:42;28.02;;;12.50;;
31262;SDS011;17892;52.080;9.006;2023-01-30T00:26:08;26.05;;;11.27;;
31262;SDS011;17892;52.080;9.006;2023-01-30T00:28:35;25.90;;;10.35;;
31262;SDS011;17892;52.080;9.006;2023-01-30T00:31:01;24.02;;;10.75;;
31262;SDS011;17892;52.080;9.006;2023-01-30T00:33:27;28.65;;;12.73;;
31262;SDS011;17892;52.080;9.006;2023-01-30T00:35:54;23.83;;;10.45;;
31262;SDS011;17892;52.080;9.006;2023-01-30T00:38:21;26.92;;;11.30;;
31262;SDS011;17892;52.080;9.006;2023-01-30T00:40:47;27.63;;;11.30;;
31262;SDS011;17892;52.080;9.006;2023-01-30T00:43:17;26.60;;;11.57;;
31262;SDS011;17892;52.080;9.006;2023-01-30T00:46:04;28.63;;;12.13;;
31262;SDS011;17892;52.080;9.006;2023-01-30T00:49:05;26.17;;;11.85;;
31262;SDS011;17892;52.080;9.006;2023-01-30T00:51:31;24.85;;;11.43;;
31262;SDS011;17892;52.080;9.006;2023-01-30T00:53:56;23.42;;;11.30;;
31262;SDS011;17892;52.080;9.006;2023-01-30T00:56:22;24.33;;;11.02;;
31262;SDS011;17892;52.080;9.006;2023-01-30T00:58:48;24.15;;;11.70;;
31262;SDS011;17892;52.080;9.006;2023-01-30T01:01:13;25.75;;;11.60;;
31262;SDS011;17892;52.080;9.006;2023-01-30T01:03:39;17.75;;;9.15;;
31262;SDS011;17892;52.080;9.006;2023-01-30T01:06:05;22.85;;;10.23;;
31262;SDS011;17892;52.080;9.006;2023-01-30T01:08:31;30.10;;;13.35;;
31262;SDS011;17892;52.080;9.006;2023-01-30T01:10:57;22.98;;;10.82;;
31262;SDS011;17892;52.080;9.006;2023-01-30T01:13:22;22.77;;;10.43;;
31262;SDS011;17892;52.080;9.006;2023-01-30T01:15:48;22.38;;;10.35;;
31262;SDS011;17892;52.080;9.006;2023-01-30T01:18:14;24.45;;;10.05;;
31262;SDS011;17892;52.080;9.006;2023-01-30T01:20:40;24.48;;;11.63;;
31262;SDS011;17892;52.080;9.006;2023-01-30T01:23:05;25.92;;;11.63;;
31262;SDS011;17892;52.080;9.006;2023-01-30T01:25:34;23.33;;;10.35;;
31262;SDS011;17892;52.080;9.006;2023-01-30T01:27:59;24.05;;;10.00;;
31262;SDS011;17892;52.080;9.006;2023-01-30T01:30:25;22.65;;;10.48;;
31262;SDS011;17892;52.080;9.006;2023-01-30T01:32:51;17.50;;;8.18;;
31262;SDS011;17892;52.080;9.006;2023-01-30T01:35:16;20.02;;;9.25;;
31262;SDS011;17892;52.080;9.006;2023-01-30T01:37:44;20.40;;;9.77;;
31262;SDS011;17892;52.080;9.006;2023-01-30T01:40:14;19.90;;;8.93;;
31262;SDS011;17892;52.080;9.006;2023-01-30T01:43:08;19.33;;;9.43;;
31262;SDS011;17892;52.080;9.006;2023-01-30T01:45:49;20.13;;;9.63;;
31262;SDS011;17892;52.080;9.006;2023-01-30T01:48:53;26.17;;;11.48;;
31262;SDS011;17892;52.080;9.006;2023-01-30T01:51:16;23.27;;;10.55;;
31262;SDS011;17892;52.080;9.006;2023-01-30T01:53:54;22.02;;;10.40;;
31262;SDS011;17892;52.080;9.006;2023-01-30T01:56:25;24.15;;;10.55;;
31262;SDS011;17892;52.080;9.006;2023-01-30T01:58:53;27.10;;;10.60;;
31262;SDS011;17892;52.080;9.006;2023-01-30T02:01:22;20.55;;;9.63;;
31262;SDS011;17892;52.080;9.006;2023-01-30T02:03:50;26.48;;;11.00;;
31262;SDS011;17892;52.080;9.006;2023-01-30T02:06:21;24.80;;;10.02;;
31262;SDS011;17892;52.080;9.006;2023-01-30T02:08:51;17.80;;;8.52;;
31262;SDS011;17892;52.080;9.006;2023-01-30T02:11:27;25.30;;;10.80;;
31262;SDS011;17892;52.080;9.006;2023-01-30T02:14:11;18.35;;;9.02;;
31262;SDS011;17892;52.080;9.006;2023-01-30T02:16:38;22.42;;;9.45;;
31262;SDS011;17892;52.080;9.006;2023-01-30T02:19:09;22.85;;;10.43;;
31262;SDS011;17892;52.080;9.006;2023-01-30T02:31:26;21.27;;;10.85;;
31262;SDS011;17892;52.080;9.006;2023-01-30T02:45:56;22.77;;;10.63;;
31262;SDS011;17892;52.080;9.006;2023-01-30T02:51:34;17.95;;;8.88;;
31262;SDS011;17892;52.080;9.006;2023-01-30T02:54:04;21.17;;;10.25;;
31262;SDS011;17892;52.080;9.006;2023-01-30T02:59:17;23.23;;;10.23;;
31262;SDS011;17892;52.080;9.006;2023-01-30T03:11:04;24.58;;;11.25;;
31262;SDS011;17892;52.080;9.006;2023-01-30T03:13:51;21.70;;;11.00;;
31262;SDS011;17892;52.080;9.006;2023-01-30T03:19:00;21.90;;;10.60;;
31262;SDS011;17892;52.080;9.006;2023-01-30T03:21:29;18.35;;;8.43;;
31262;SDS011;17892;52.080;9.006;2023-01-30T03:23:54;23.08;;;10.40;;
31262;SDS011;17892;52.080;9.006;2023-01-30T03:26:21;24.77;;;10.60;;
31262;SDS011;17892;52.080;9.006;2023-01-30T03:28:50;23.77;;;10.38;;
31262;SDS011;17892;52.080;9.006;2023-01-30T03:31:17;22.67;;;11.00;;
31262;SDS011;17892;52.080;9.006;2023-01-30T03:33:43;17.27;;;9.38;;
31262;SDS011;17892;52.080;9.006;2023-01-30T03:36:09;22.63;;;10.65;;
31262;SDS011;17892;52.080;9.006;2023-01-30T03:38:35;23.58;;;10.85;;
31262;SDS011;17892;52.080;9.006;2023-01-30T03:41:01;22.95;;;11.25;;
31262;SDS011;17892;52.080;9.006;2023-01-30T03:43:28;20.75;;;10.70;;
31262;SDS011;17892;52.080;9.006;2023-01-30T03:45:54;21.35;;;10.02;;
31262;SDS011;17892;52.080;9.006;2023-01-30T03:48:20;20.13;;;10.35;;
31262;SDS011;17892;52.080;9.006;2023-01-30T03:50:45;18.25;;;9.13;;
31262;SDS011;17892;52.080;9.006;2023-01-30T03:53:11;16.45;;;8.90;;
31262;SDS011;17892;52.080;9.006;2023-01-30T03:55:37;22.52;;;11.27;;
31262;SDS011;17892;52.080;9.006;2023-01-30T03:58:03;21.27;;;9.73;;
31262;SDS011;17892;52.080;9.006;2023-01-30T04:00:29;21.90;;;10.93;;
31262;SDS011;17892;52.080;9.006;2023-01-30T04:02:55;19.13;;;9.23;;
31262;SDS011;17892;52.080;9.006;2023-01-30T04:05:21;23.05;;;10.93;;
31262;SDS011;17892;52.080;9.006;2023-01-30T04:07:47;19.77;;;9.73;;
31262;SDS011;17892;52.080;9.006;2023-01-30T04:10:14;19.48;;;8.63;;
31262;SDS011;17892;52.080;9.006;2023-01-30T04:12:42;20.02;;;9.68;;
31262;SDS011;17892;52.080;9.006;2023-01-30T04:15:08;21.10;;;9.40;;
31262;SDS011;17892;52.080;9.006;2023-01-30T04:17:35;18.42;;;9.20;;
31262;SDS011;17892;52.080;9.006;2023-01-30T04:20:00;16.77;;;8.48;;
31262;SDS011;17892;52.080;9.006;2023-01-30T04:22:26;16.77;;;8.60;;
31262;SDS011;17892;52.080;9.006;2023-01-30T04:24:52;15.93;;;7.35;;
31262;SDS011;17892;52.080;9.006;2023-01-30T04:27:17;20.02;;;10.00;;
31262;SDS011;17892;52.080;9.006;2023-01-30T04:29:43;18.95;;;9.10;;
31262;SDS011;17892;52.080;9.006;2023-01-30T04:32:09;17.98;;;8.80;;
31262;SDS011;17892;52.080;9.006;2023-01-30T04:34:34;15.48;;;7.55;;
31262;SDS011;17892;52.080;9.006;2023-01-30T04:37:00;21.05;;;9.60;;
31262;SDS011;17892;52.080;9.006;2023-01-30T04:39:26;16.45;;;7.90;;
31262;SDS011;17892;52.080;9.006;2023-01-30T04:41:51;14.35;;;7.63;;
31262;SDS011;17892;52.080;9.006;2023-01-30T04:44:17;13.02;;;7.18;;
31262;SDS011;17892;52.080;9.006;2023-01-30T04:46:42;13.80;;;7.43;;
31262;SDS011;17892;52.080;9.006;2023-01-30T04:49:09;15.48;;;7.53;;
31262;SDS011;17892;52.080;9.006;2023-01-30T04:51:35;12.25;;;6.72;;
31262;SDS011;17892;52.080;9.006;2023-01-30T04:54:01;15.90;;;7.70;;
31262;SDS011;17892;52.080;9.006;2023-01-30T04:56:27;14.95;;;7.55;;
31262;SDS011;17892;52.080;9.006;2023-01-30T04:58:53;15.32;;;8.40;;
31262;SDS011;17892;52.080;9.006;2023-01-30T05:01:32;17.17;;;9.27;;
31262;SDS011;17892;52.080;9.006;2023-01-30T05:04:01;14.07;;;8.32;;
31262;SDS011;17892;52.080;9.006;2023-01-30T05:06:28;14.68;;;8.50;;
31262;SDS011;17892;52.080;9.006;2023-01-30T05:08:55;13.90;;;6.57;;
31262;SDS011;17892;52.080;9.006;2023-01-30T05:11:21;17.05;;;8.07;;
31262;SDS011;17892;52.080;9.006;2023-01-30T05:13:49;13.00;;;7.25;;
31262;SDS011;17892;52.080;9.006;2023-01-30T05:16:15;13.05;;;6.35;;
31262;SDS011;17892;52.080;9.006;2023-01-30T05:18:42;14.43;;;7.93;;
31262;SDS011;17892;52.080;9.006;2023-01-30T05:21:12;13.80;;;7.63;;
31262;SDS011;17892;52.080;9.006;2023-01-30T05:23:41;13.20;;;7.30;;
31262;SDS011;17892;52.080;9.006;2023-01-30T05:26:08;12.25;;;6.38;;
31262;SDS011;17892;52.080;9.006;2023-01-30T05:28:35;12.35;;;6.10;;
31262;SDS011;17892;52.080;9.006;2023-01-30T05:31:01;12.82;;;7.15;;
31262;SDS011;17892;52.080;9.006;2023-01-30T05:33:31;11.90;;;6.03;;
31262;SDS011;17892;52.080;9.006;2023-01-30T05:35:57;13.45;;;7.10;;
31262;SDS011;17892;52.080;9.006;2023-01-30T05:38:23;13.85;;;7.70;;
31262;SDS011;17892;52.080;9.006;2023-01-30T05:40:57;13.85;;;7.53;;
31262;SDS011;17892;52.080;9.006;2023-01-30T05:43:24;11.50;;;6.30;;
31262;SDS011;17892;52.080;9.006;2023-01-30T05:45:53;12.50;;;6.53;;
31262;SDS011;17892;52.080;9.006;2023-01-30T05:48:20;13.23;;;6.53;;
31262;SDS011;17892;52.080;9.006;2023-01-30T05:50:48;11.32;;;6.32;;
31262;SDS011;17892;52.080;9.006;2023-01-30T05:53:16;11.07;;;6.43;;
31262;SDS011;17892;52.080;9.006;2023-01-30T05:55:43;10.40;;;6.38;;
31262;SDS011;17892;52.080;9.006;2023-01-30T05:58:09;13.40;;;7.30;;
31262;SDS011;17892;52.080;9.006;2023-01-30T06:00:35;11.82;;;6.85;;
31262;SDS011;17892;52.080;9.006;2023-01-30T06:03:00;11.40;;;6.03;;
31262;SDS011;17892;52.080;9.006;2023-01-30T06:05:26;10.88;;;5.38;;
31262;SDS011;17892;52.080;9.006;2023-01-30T06:07:52;8.88;;;4.95;;
31262;SDS011;17892;52.080;9.006;2023-01-30T06:10:17;9.77;;;4.97;;
31262;SDS011;17892;52.080;9.006;2023-01-30T06:12:43;8.32;;;4.28;;
31262;SDS011;17892;52.080;9.006;2023-01-30T06:15:09;7.38;;;4.13;;
31262;SDS011;17892;52.080;9.006;2023-01-30T06:17:35;8.02;;;4.05;;
31262;SDS011;17892;52.080;9.006;2023-01-30T06:20:01;6.93;;;3.33;;
31262;SDS011;17892;52.080;9.006;2023-01-30T06:22:27;6.35;;;2.95;;
31262;SDS011;17892;52.080;9.006;2023-01-30T06:24:53;6.72;;;2.83;;
31262;SDS011;17892;52.080;9.006;2023-01-30T06:27:19;7.18;;;2.70;;
31262;SDS011;17892;52.080;9.006;2023-01-30T06:29:44;5.53;;;2.72;;
31262;SDS011;17892;52.080;9.006;2023-01-30T06:32:10;6.63;;;2.45;;
31262;SDS011;17892;52.080;9.006;2023-01-30T06:34:36;5.03;;;2.30;;
31262;SDS011;17892;52.080;9.006;2023-01-30T06:37:01;4.97;;;2.20;;
31262;SDS011;17892;52.080;9.006;2023-01-30T06:39:27;5.93;;;2.22;;
31262;SDS011;17892;52.080;9.006;2023-01-30T06:41:53;4.00;;;2.00;;
31262;SDS011;17892;52.080;9.006;2023-01-30T06:44:18;5.05;;;2.90;;
31262;SDS011;17892;52.080;9.006;2023-01-30T06:46:44;5.15;;;2.70;;
31262;SDS011;17892;52.080;9.006;2023-01-30T06:49:09;5.20;;;2.95;;
31262;SDS011;17892;52.080;9.006;2023-01-30T06:51:35;11.60;;;4.72;;
31262;SDS011;17892;52.080;9.006;2023-01-30T06:54:01;6.97;;;4.03;;
31262;SDS011;17892;52.080;9.006;2023-01-30T06:56:26;6.90;;;3.95;;
31262;SDS011;17892;52.080;9.006;2023-01-30T06:58:52;8.75;;;3.92;;
31262;SDS011;17892;52.080;9.006;2023-01-30T07:01:18;7.97;;;3.38;;
31262;SDS011;17892;52.080;9.006;2023-01-30T07:03:45;9.05;;;4.63;;
31262;SDS011;17892;52.080;9.006;2023-01-30T07:06:11;7.00;;;3.40;;
31262;SDS011;17892;52.080;9.006;2023-01-30T07:08:37;9.30;;;3.80;;
31262;SDS011;17892;52.080;9.006;2023-01-30T07:11:03;6.60;;;3.28;;
31262;SDS011;17892;52.080;9.006;2023-01-30T07:13:29;5.63;;;2.97;;
31262;SDS011;17892;52.080;9.006;2023-01-30T07:15:55;6.32;;;3.05;;
31262;SDS011;17892;52.080;9.006;2023-01-30T07:18:20;6.15;;;3.55;;
31262;SDS011;17892;52.080;9.006;2023-01-30T07:20:47;7.82;;;3.60;;
31262;SDS011;17892;52.080;9.006;2023-01-30T07:23:13;6.35;;;3.55;;
31262;SDS011;17892;52.080;9.006;2023-01-30T07:25:39;6.97;;;3.22;;
31262;SDS011;17892;52.080;9.006;2023-01-30T07:28:04;8.18;;;3.47;;
31262;SDS011;17892;52.080;9.006;2023-01-30T07:30:31;7.43;;;3.40;;
31262;SDS011;17892;52.080;9.006;2023-01-30T07:35:28;5.90;;;2.70;;
31262;SDS011;17892;52.080;9.006;2023-01-30T07:37:58;8.68;;;3.15;;
31262;SDS011;17892;52.080;9.006;2023-01-30T07:40:24;10.93;;;3.15;;
31262;SDS011;17892;52.080;9.006;2023-01-30T07:42:56;6.47;;;2.25;;
31262;SDS011;17892;52.080;9.006;2023-01-30T07:45:27;8.35;;;2.63;;
31262;SDS011;17892;52.080;9.006;2023-01-30T07:47:59;8.45;;;3.47;;
31262;SDS011;17892;52.080;9.006;2023-01-30T07:50:24;5.60;;;2.20;;
31262;SDS011;17892;52.080;9.006;2023-01-30T07:52:50;6.47;;;1.60;;
31262;SDS011;17892;52.080;9.006;2023-01-30T07:55:16;7.00;;;2.30;;
31262;SDS011;17892;52.080;9.006;2023-01-30T07:57:42;5.60;;;1.77;;
31262;SDS011;17892;52.080;9.006;2023-01-30T08:00:08;6.57;;;1.85;;
31262;SDS011;17892;52.080;9.006;2023-01-30T08:02:34;3.88;;;1.40;;
31262;SDS011;17892;52.080;9.006;2023-01-30T08:05:01;6.70;;;1.98;;
31262;SDS011;17892;52.080;9.006;2023-01-30T08:07:26;5.90;;;1.92;;
31262;SDS011;17892;52.080;9.006;2023-01-30T08:09:52;4.53;;;1.70;;
31262;SDS011;17892;52.080;9.006;2023-01-30T08:12:18;7.57;;;1.77;;
31262;SDS011;17892;52.080;9.006;2023-01-30T08:14:43;6.82;;;1.52;;
31262;SDS011;17892;52.080;9.006;2023-01-30T08:17:09;5.72;;;2.05;;
31262;SDS011;17892;52.080;9.006;2023-01-30T08:19:35;5.38;;;1.58;;
31262;SDS011;17892;52.080;9.006;2023-01-30T08:22:01;4.53;;;1.50;;
31262;SDS011;17892;52.080;9.006;2023-01-30T08:24:26;5.50;;;1.55;;
31262;SDS011;17892;52.080;9.006;2023-01-30T08:26:52;4.63;;;1.20;;
31262;SDS011;17892;52.080;9.006;2023-01-30T08:29:18;3.78;;;1.15;;
31262;SDS011;17892;52.080;9.006;2023-01-30T08:31:43;5.70;;;1.30;;
31262;SDS011;17892;52.080;9.006;2023-01-30T08:34:09;6.60;;;1.17;;
31262;SDS011;17892;52.080;9.006;2023-01-30T08:36:35;4.90;;;1.15;;
31262;SDS011;17892;52.080;9.006;2023-01-30T08:39:00;7.10;;;1.45;;
31262;SDS011;17892;52.080;9.006;2023-01-30T08:41:26;5.20;;;1.27;;
31262;SDS011;17892;52.080;9.006;2023-01-30T08:43:52;5.93;;;1.67;;
31262;SDS011;17892;52.080;9.006;2023-01-30T08:46:18;8.55;;;1.42;;
31262;SDS011;17892;52.080;9.006;2023-01-30T08:48:46;7.00;;;1.20;;
31262;SDS011;17892;52.080;9.006;2023-01-30T08:51:12;5.50;;;1.42;;
31262;SDS011;17892;52.080;9.006;2023-01-30T08:53:38;5.82;;;1.00;;
31262;SDS011;17892;52.080;9.006;2023-01-30T08:56:04;8.05;;;1.58;;
31262;SDS011;17892;52.080;9.006;2023-01-30T08:58:30;9.02;;;1.75;;
31262;SDS011;17892;52.080;9.006;2023-01-30T09:00:56;8.70;;;1.52;;
31262;SDS011;17892;52.080;9.006;2023-01-30T09:03:22;6.20;;;1.52;;
31262;SDS011;17892;52.080;9.006;2023-01-30T09:05:52;8.52;;;2.03;;
31262;SDS011;17892;52.080;9.006;2023-01-30T09:08:20;7.28;;;1.10;;
31262;SDS011;17892;52.080;9.006;2023-01-30T09:10:46;7.35;;;1.38;;
31262;SDS011;17892;52.080;9.006;2023-01-30T09:13:11;6.97;;;1.13;;
31262;SDS011;17892;52.080;9.006;2023-01-30T09:15:40;10.82;;;1.75;;
31262;SDS011;17892;52.080;9.006;2023-01-30T09:18:06;7.32;;;1.55;;
31262;SDS011;17892;52.080;9.006;2023-01-30T09:20:32;8.82;;;1.10;;
31262;SDS011;17892;52.080;9.006;2023-01-30T09:22:58;7.43;;;1.60;;
31262;SDS011;17892;52.080;9.006;2023-01-30T09:25:26;8.23;;;1.35;;
31262;SDS011;17892;52.080;9.006;2023-01-30T09:27:52;9.88;;;1.30;;
31262;SDS011;17892;52.080;9.006;2023-01-30T09:30:19;8.02;;;1.45;;
31262;SDS011;17892;52.080;9.006;2023-01-30T09:32:44;8.20;;;1.30;;
31262;SDS011;17892;52.080;9.006;2023-01-30T09:35:10;9.50;;;1.30;;
31262;SDS011;17892;52.080;9.006;2023-01-30T09:37:36;7.00;;;1.20;;
31262;SDS011;17892;52.080;9.006;2023-01-30T09:40:02;8.77;;;1.25;;
31262;SDS011;17892;52.080;9.006;2023-01-30T09:48:05;5.55;;;1.27;;
31262;SDS011;17892;52.080;9.006;2023-01-30T09:54:02;10.75;;;2.42;;
31262;SDS011;17892;52.080;9.006;2023-01-30T09:56:45;5.85;;;1.65;;
31262;SDS011;17892;52.080;9.006;2023-01-30T09:59:41;5.90;;;1.88;;
31262;SDS011;17892;52.080;9.006;2023-01-30T10:02:38;7.78;;;1.42;;
31262;SDS011;17892;52.080;9.006;2023-01-30T10:05:10;6.80;;;1.50;;
31262;SDS011;17892;52.080;9.006;2023-01-30T10:13:44;8.88;;;1.10;;
31262;SDS011;17892;52.080;9.006;2023-01-30T10:30:46;11.00;;;1.75;;
31262;SDS011;17892;52.080;9.006;2023-01-30T10:33:35;7.32;;;1.58;;
31262;SDS011;17892;52.080;9.006;2023-01-30T10:36:15;8.85;;;1.85;;
31262;SDS011;17892;52.080;9.006;2023-01-30T10:39:41;7.13;;;1.27;;
31262;SDS011;17892;52.080;9.006;2023-01-30T10:45:18;10.45;;;1.77;;
31262;SDS011;17892;52.080;9.006;2023-01-30T10:48:17;13.15;;;2.30;;
31262;SDS011;17892;52.080;9.006;2023-01-30T10:51:57;8.07;;;1.13;;
31262;SDS011;17892;52.080;9.006;2023-01-30T10:54:27;8.90;;;1.25;;
31262;SDS011;17892;52.080;9.006;2023-01-30T10:57:04;22.33;;;2.65;;
31262;SDS011;17892;52.080;9.006;2023-01-30T10:59:57;6.85;;;1.25;;
31262;SDS011;17892;52.080;9.006;2023-01-30T11:05:27;5.53;;;0.95;;
31262;SDS011;17892;52.080;9.006;2023-01-30T11:08:07;8.80;;;1.27;;
31262;SDS011;17892;52.080;9.006;2023-01-30T11:10:53;7.72;;;1.20;;
31262;SDS011;17892;52.080;9.006;2023-01-30T11:13:22;7.38;;;1.75;;
31262;SDS011;17892;52.080;9.006;2023-01-30T11:15:55;10.13;;;1.52;;
31262;SDS011;17892;52.080;9.006;2023-01-30T11:18:24;9.80;;;1.45;;
31262;SDS011;17892;52.080;9.006;2023-01-30T11:23:34;7.78;;;2.13;;
31262;SDS011;17892;52.080;9.006;2023-01-30T11:26:06;9.77;;;1.15;;
31262;SDS011;17892;52.080;9.006;2023-01-30T11:28:40;7.03;;;1.23;;
31262;SDS011;17892;52.080;9.006;2023-01-30T11:31:15;6.97;;;1.25;;
31262;SDS011;17892;52.080;9.006;2023-01-30T11:34:02;10.02;;;1.65;;
31262;SDS011;17892;52.080;9.006;2023-01-30T11:36:35;9.13;;;1.75;;
31262;SDS011;17892;52.080;9.006;2023-01-30T11:39:02;11.52;;;1.90;;
31262;SDS011;17892;52.080;9.006;2023-01-30T11:41:43;6.15;;;1.27;;
31262;SDS011;17892;52.080;9.006;2023-01-30T11:44:35;9.27;;;1.33;;
31262;SDS011;17892;52.080;9.006;2023-01-30T11:47:08;9.15;;;1.95;;
31262;SDS011;17892;52.080;9.006;2023-01-30T11:49:44;9.52;;;1.60;;
31262;SDS011;17892;52.080;9.006;2023-01-30T11:52:17;13.50;;;3.40;;
31262;SDS011;17892;52.080;9.006;2023-01-30T11:54:47;9.80;;;1.30;;
31262;SDS011;17892;52.080;9.006;2023-01-30T11:57:14;7.82;;;1.05;;
31262;SDS011;17892;52.080;9.006;2023-01-30T12:02:30;8.90;;;2.10;;
31262;SDS011;17892;52.080;9.006;2023-01-30T12:05:05;7.13;;;1.63;;
31262;SDS011;17892;52.080;9.006;2023-01-30T12:07:45;6.25;;;1.27;;
31262;SDS011;17892;52.080;9.006;2023-01-30T12:10:26;7.03;;;1.23;;
31262;SDS011;17892;52.080;9.006;2023-01-30T12:12:55;4.88;;;1.23;;
31262;SDS011;17892;52.080;9.006;2023-01-30T12:15:30;8.02;;;1.70;;
31262;SDS011;17892;52.080;9.006;2023-01-30T12:24:09;9.00;;;1.35;;
31262;SDS011;17892;52.080;9.006;2023-01-30T12:27:12;4.32;;;1.10;;
31262;SDS011;17892;52.080;9.006;2023-01-30T12:32:29;7.45;;;1.20;;
31262;SDS011;17892;52.080;9.006;2023-01-30T12:40:38;7.75;;;1.20;;
31262;SDS011;17892;52.080;9.006;2023-01-30T12:52:26;6.75;;;1.23;;
31262;SDS011;17892;52.080;9.006;2023-01-30T13:00:33;4.32;;;1.02;;
31262;SDS011;17892;52.080;9.006;2023-01-30T13:07:40;5.97;;;0.80;;
31262;SDS011;17892;52.080;9.006;2023-01-30T13:12:57;5.68;;;0.85;;
31262;SDS011;17892;52.080;9.006;2023-01-30T13:16:22;3.50;;;0.60;;
31262;SDS011;17892;52.080;9.006;2023-01-30T13:19:17;4.20;;;0.93;;
31262;SDS011;17892;52.080;9.006;2023-01-30T13:21:57;4.30;;;0.93;;
31262;SDS011;17892;52.080;9.006;2023-01-30T13:27:27;4.53;;;0.57;;
31262;SDS011;17892;52.080;9.006;2023-01-30T13:32:33;4.50;;;0.80;;
31262;SDS011;17892;52.080;9.006;2023-01-30T13:35:09;2.97;;;0.90;;
31262;SDS011;17892;52.080;9.006;2023-01-30T13:37:45;6.40;;;0.95;;
31262;SDS011;17892;52.080;9.006;2023-01-30T13:43:17;4.90;;;1.00;;
31262;SDS011;17892;52.080;9.006;2023-01-30T13:45:54;5.90;;;1.63;;
31262;SDS011;17892;52.080;9.006;2023-01-30T13:59:38;10.30;;;1.33;;
31262;SDS011;17892;52.080;9.006;2023-01-30T14:02:22;7.28;;;1.10;;
31262;SDS011;17892;52.080;9.006;2023-01-30T14:04:53;7.72;;;1.30;;
31262;SDS011;17892;52.080;9.006;2023-01-30T14:07:21;8.80;;;1.15;;
31262;SDS011;17892;52.080;9.006;2023-01-30T14:10:10;5.63;;;1.20;;
31262;SDS011;17892;52.080;9.006;2023-01-30T14:12:45;5.13;;;1.10;;
31262;SDS011;17892;52.080;9.006;2023-01-30T14:20:25;6.82;;;1.42;;
31262;SDS011;17892;52.080;9.006;2023-01-30T14:36:28;5.72;;;1.02;;
31262;SDS011;17892;52.080;9.006;2023-01-30T14:38:32;10.02;;;1.40;;
31262;SDS011;17892;52.080;9.006;2023-01-30T14:56:41;3.20;;;0.60;;
31262;SDS011;17892;52.080;9.006;2023-01-30T14:59:22;4.57;;;0.70;;
31262;SDS011;17892;52.080;9.006;2023-01-30T15:17:59;3.88;;;0.98;;
31262;SDS011;17892;52.080;9.006;2023-01-30T15:26:40;4.55;;;0.63;;
31262;SDS011;17892;52.080;9.006;2023-01-30T15:29:53;4.72;;;0.80;;
31262;SDS011;17892;52.080;9.006;2023-01-30T15:32:45;7.55;;;1.23;;
31262;SDS011;17892;52.080;9.006;2023-01-30T15:37:47;6.80;;;1.13;;
31262;SDS011;17892;52.080;9.006;2023-01-30T15:42:44;4.38;;;0.70;;
31262;SDS011;17892;52.080;9.006;2023-01-30T15:48:22;6.05;;;0.70;;
31262;SDS011;17892;52.080;9.006;2023-01-30T15:51:18;6.47;;;0.85;;
31262;SDS011;17892;52.080;9.006;2023-01-30T15:53:53;4.03;;;0.75;;
31262;SDS011;17892;52.080;9.006;2023-01-30T15:56:25;6.45;;;0.90;;
31262;SDS011;17892;52.080;9.006;2023-01-30T15:58:55;6.00;;;0.93;;
31262;SDS011;17892;52.080;9.006;2023-01-30T16:01:24;9.15;;;1.80;;
31262;SDS011;17892;52.080;9.006;2023-01-30T16:03:50;7.25;;;1.13;;
31262;SDS011;17892;52.080;9.006;2023-01-30T16:06:31;5.65;;;0.90;;
31262;SDS011;17892;52.080;9.006;2023-01-30T16:09:04;6.30;;;1.02;;
31262;SDS011;17892;52.080;9.006;2023-01-30T16:11:42;8.50;;;1.20;;
31262;SDS011;17892;52.080;9.006;2023-01-30T16:14:11;5.43;;;0.90;;
31262;SDS011;17892;52.080;9.006;2023-01-30T16:16:40;3.80;;;0.70;;
31262;SDS011;17892;52.080;9.006;2023-01-30T16:19:25;6.72;;;1.08;;
31262;SDS011;17892;52.080;9.006;2023-01-30T16:22:01;7.30;;;2.05;;
31262;SDS011;17892;52.080;9.006;2023-01-30T16:24:30;7.78;;;1.45;;
31262;SDS011;17892;52.080;9.006;2023-01-30T16:27:01;6.57;;;1.10;;
31262;SDS011;17892;52.080;9.006;2023-01-30T16:29:31;6.45;;;1.38;;
31262;SDS011;17892;52.080;9.006;2023-01-30T16:32:17;5.45;;;0.93;;
31262;SDS011;17892;52.080;9.006;2023-01-30T16:35:13;6.22;;;0.98;;
31262;SDS011;17892;52.080;9.006;2023-01-30T16:37:50;5.63;;;0.95;;
31262;SDS011;17892;52.080;9.006;2023-01-30T16:40:22;7.32;;;1.38;;
31262;SDS011;17892;52.080;9.006;2023-01-30T16:42:57;5.80;;;1.17;;
31262;SDS011;17892;52.080;9.006;2023-01-30T16:50:41;5.95;;;1.20;;
31262;SDS011;17892;52.080;9.006;2023-01-30T16:53:12;7.70;;;1.55;;
31262;SDS011;17892;52.080;9.006;2023-01-30T16:55:56;7.03;;;1.30;;
31262;SDS011;17892;52.080;9.006;2023-01-30T16:58:34;11.73;;;1.38;;
31262;SDS011;17892;52.080;9.006;2023-01-30T17:01:02;10.35;;;1.90;;
31262;SDS011;17892;52.080;9.006;2023-01-30T17:03:34;7.15;;;1.10;;
31262;SDS011;17892;52.080;9.006;2023-01-30T17:06:05;5.15;;;1.10;;
31262;SDS011;17892;52.080;9.006;2023-01-30T17:11:37;4.38;;;0.95;;
31262;SDS011;17892;52.080;9.006;2023-01-30T17:19:31;4.15;;;0.70;;
31262;SDS011;17892;52.080;9.006;2023-01-30T17:21:58;1.77;;;0.52;;
31262;SDS011;17892;52.080;9.006;2023-01-30T17:24:26;3.88;;;0.90;;
31262;SDS011;17892;52.080;9.006;2023-01-30T17:26:57;2.92;;;0.63;;
31262;SDS011;17892;52.080;9.006;2023-01-30T17:29:26;7.05;;;0.77;;
31262;SDS011;17892;52.080;9.006;2023-01-30T17:31:57;4.20;;;0.68;;
31262;SDS011;17892;52.080;9.006;2023-01-30T17:34:23;3.28;;;0.50;;
31262;SDS011;17892;52.080;9.006;2023-01-30T17:36:50;4.50;;;0.70;;
31262;SDS011;17892;52.080;9.006;2023-01-30T17:39:18;3.88;;;0.60;;
31262;SDS011;17892;52.080;9.006;2023-01-30T17:41:46;4.90;;;0.95;;
31262;SDS011;17892;52.080;9.006;2023-01-30T17:44:12;3.83;;;1.05;;
31262;SDS011;17892;52.080;9.006;2023-01-30T17:46:40;3.45;;;0.70;;
31262;SDS011;17892;52.080;9.006;2023-01-30T17:51:44;5.07;;;1.10;;
31262;SDS011;17892;52.080;9.006;2023-01-30T17:54:10;4.65;;;0.93;;
31262;SDS011;17892;52.080;9.006;2023-01-30T17:56:38;5.80;;;1.30;;
31262;SDS011;17892;52.080;9.006;2023-01-30T17:59:09;6.85;;;1.15;;
31262;SDS011;17892;52.080;9.006;2023-01-30T18:01:45;5.85;;;0.85;;
31262;SDS011;17892;52.080;9.006;2023-01-30T18:04:13;12.68;;;1.20;;
31262;SDS011;17892;52.080;9.006;2023-01-30T18:06:41;5.80;;;1.77;;
31262;SDS011;17892;52.080;9.006;2023-01-30T18:09:17;8.68;;;1.77;;
31262;SDS011;17892;52.080;9.006;2023-01-30T18:11:47;7.63;;;1.35;;
31262;SDS011;17892;52.080;9.006;2023-01-30T18:14:14;7.35;;;1.55;;
31262;SDS011;17892;52.080;9.006;2023-01-30T18:16:41;5.93;;;1.23;;
31262;SDS011;17892;52.080;9.006;2023-01-30T18:19:08;10.18;;;2.00;;
31262;SDS011;17892;52.080;9.006;2023-01-30T18:21:37;8.45;;;2.40;;
31262;SDS011;17892;52.080;9.006;2023-01-30T18:24:04;8.63;;;1.83;;
31262;SDS011;17892;52.080;9.006;2023-01-30T18:26:31;9.07;;;1.65;;
31262;SDS011;17892;52.080;9.006;2023-01-30T18:28:57;16.25;;;1.60;;
31262;SDS011;17892;52.080;9.006;2023-01-30T18:31:23;9.40;;;1.85;;
31262;SDS011;17892;52.080;9.006;2023-01-30T18:33:51;9.50;;;1.95;;
31262;SDS011;17892;52.080;9.006;2023-01-30T18:36:17;8.27;;;1.67;;
31262;SDS011;17892;52.080;9.006;2023-01-30T18:38:45;7.65;;;1.52;;
31262;SDS011;17892;52.080;9.006;2023-01-30T18:41:12;9.00;;;2.25;;